createdAt,value
2017-07-18T00:02:14.153Z,100820.73
2017-07-18T00:04:41.631Z,100811.63
2017-07-18T00:07:09.117Z,100819.86
2017-07-18T00:09:37.434Z,100816.12
2017-07-18T00:12:04.954Z,100807.14
2017-07-18T00:14:32.560Z,100810.41
2017-07-18T00:17:00.017Z,100813.20
2017-07-18T00:19:27.504Z,100809.24
2017-07-18T00:21:54.961Z,100808.11
2017-07-18T00:24:22.542Z,100805.69
2017-07-18T00:26:50.017Z,100813.30
2017-07-18T00:29:17.497Z,100816.21
2017-07-18T00:31:45.021Z,100810.09
2017-07-18T00:34:12.507Z,100813.22
2017-07-18T00:36:39.975Z,100804.33
2017-07-18T00:39:07.455Z,100812.69
2017-07-18T00:41:34.949Z,100808.27
2017-07-18T00:44:02.453Z,100812.64
2017-07-18T00:46:33.734Z,100807.22
2017-07-18T00:49:01.289Z,100807.91
2017-07-18T00:51:28.739Z,100805.11
2017-07-18T00:53:56.220Z,100803.47
2017-07-18T00:56:23.672Z,100801.92
2017-07-18T00:58:51.599Z,100807.40
2017-07-18T01:01:19.078Z,100799.41
2017-07-18T01:03:46.509Z,100796.14
2017-07-18T01:06:13.999Z,100794.74
2017-07-18T01:08:41.463Z,100798.11
2017-07-18T01:11:09.014Z,100800.59
2017-07-18T01:13:36.529Z,100796.72
2017-07-18T01:16:03.986Z,100805.04
2017-07-18T01:18:31.440Z,100803.88
2017-07-18T01:20:58.906Z,100797.96
2017-07-18T01:23:27.083Z,100794.08
2017-07-18T01:25:54.555Z,100788.70
2017-07-18T01:28:22.026Z,100787.36
2017-07-18T01:30:49.525Z,100784.28
2017-07-18T01:33:16.975Z,100789.56
2017-07-18T01:35:44.602Z,100782.63
2017-07-18T01:38:12.070Z,100783.85
2017-07-18T01:40:39.540Z,100779.84
2017-07-18T01:43:06.987Z,100780.58
2017-07-18T01:45:34.508Z,100783.45
2017-07-18T01:48:01.947Z,100785.64
2017-07-18T01:50:29.454Z,100787.25
2017-07-18T01:52:56.943Z,100782.77
2017-07-18T01:55:24.460Z,100778.27
2017-07-18T01:57:52.006Z,100781.41
2017-07-18T02:00:19.476Z,100778.47
2017-07-18T02:02:47.038Z,100775.89
2017-07-18T02:05:14.591Z,100778.78
2017-07-18T02:07:42.138Z,100770.55
2017-07-18T02:10:09.579Z,100768.61
2017-07-18T02:12:37.081Z,100765.38
2017-07-18T02:15:04.610Z,100764.12
2017-07-18T02:17:32.079Z,100765.24
2017-07-18T02:19:59.535Z,100761.27
2017-07-18T02:22:27.098Z,100763.20
2017-07-18T02:24:54.649Z,100763.92
2017-07-18T02:27:22.123Z,100753.56
2017-07-18T02:29:49.609Z,100763.78
2017-07-18T02:32:17.092Z,100752.67
2017-07-18T02:34:44.552Z,100751.73
2017-07-18T02:37:12.030Z,100753.86
2017-07-18T02:39:39.475Z,100747.72
2017-07-18T02:42:06.956Z,100750.64
2017-07-18T02:44:34.523Z,100750.28
2017-07-18T02:47:01.995Z,100749.50
2017-07-18T02:49:29.448Z,100747.81
2017-07-18T02:51:56.915Z,100745.13
2017-07-18T02:54:24.426Z,100748.45
2017-07-18T02:56:52.012Z,100747.95
2017-07-18T02:59:19.456Z,100742.95
2017-07-18T03:01:46.903Z,100743.64
2017-07-18T03:04:14.459Z,100746.33
2017-07-18T03:06:41.918Z,100741.08
2017-07-18T03:09:09.379Z,100750.75
2017-07-18T03:11:36.819Z,100740.85
2017-07-18T03:14:04.386Z,100741.84
2017-07-18T03:16:31.832Z,100742.40
2017-07-18T03:18:59.408Z,100739.70
2017-07-18T03:21:26.851Z,100747.64
2017-07-18T03:23:54.414Z,100749.27
2017-07-18T03:26:21.872Z,100746.09
2017-07-18T03:28:49.446Z,100748.21
2017-07-18T03:31:16.896Z,100753.27
2017-07-18T03:33:44.461Z,100749.19
2017-07-18T03:36:11.909Z,100752.37
2017-07-18T03:38:39.395Z,100747.95
2017-07-18T03:41:06.848Z,100751.83
2017-07-18T03:43:34.393Z,100756.89
2017-07-18T03:46:01.848Z,100751.16
2017-07-18T03:48:29.387Z,100757.29
2017-07-18T03:50:56.851Z,100758.39
2017-07-18T03:53:25.336Z,100753.38
2017-07-18T03:55:52.769Z,100756.23
2017-07-18T03:58:20.379Z,100744.51
2017-07-18T04:00:47.819Z,100749.14
2017-07-18T04:03:15.386Z,100753.21
2017-07-18T04:05:42.915Z,100758.55
2017-07-18T04:08:10.383Z,100761.38
2017-07-18T04:10:37.843Z,100764.85
2017-07-18T04:13:05.294Z,100765.23
2017-07-18T04:15:33.110Z,100761.77
2017-07-18T04:18:00.622Z,100765.25
2017-07-18T04:20:28.109Z,100768.87
2017-07-18T04:22:55.594Z,100764.91
2017-07-18T04:25:23.196Z,100764.91
2017-07-18T04:27:50.683Z,100764.72
2017-07-18T04:30:18.207Z,100768.10
2017-07-18T04:32:45.659Z,100772.64
2017-07-18T04:35:13.131Z,100766.53
2017-07-18T04:37:40.576Z,100771.02
2017-07-18T04:40:08.262Z,100765.53
2017-07-18T04:42:35.806Z,100763.88
2017-07-18T04:45:03.308Z,100767.59
2017-07-18T04:47:30.801Z,100763.40
2017-07-18T04:49:58.428Z,100760.55
2017-07-18T04:52:25.934Z,100763.86
2017-07-18T04:54:53.482Z,100764.05
2017-07-18T04:57:20.913Z,100760.92
2017-07-18T04:59:48.515Z,100760.70
2017-07-18T05:02:16.095Z,100757.84
2017-07-18T05:04:43.574Z,100753.80
2017-07-18T05:07:11.076Z,100752.13
2017-07-18T05:09:38.514Z,100750.16
2017-07-18T05:12:06.000Z,100749.62
2017-07-18T05:14:33.553Z,100750.30
2017-07-18T05:17:01.116Z,100749.08
2017-07-18T05:19:28.563Z,100750.62
2017-07-18T05:21:56.032Z,100750.09
2017-07-18T05:24:23.596Z,100752.66
2017-07-18T05:26:51.073Z,100748.80
2017-07-18T05:29:18.529Z,100745.77
2017-07-18T05:31:46.005Z,100744.32
2017-07-18T05:34:13.437Z,100748.88
2017-07-18T05:36:40.960Z,100744.14
2017-07-18T05:39:08.408Z,100738.73
2017-07-18T05:41:35.973Z,100742.89
2017-07-18T05:44:03.426Z,100742.81
2017-07-18T05:46:30.997Z,100748.02
2017-07-18T05:48:58.430Z,100740.64
2017-07-18T05:51:25.895Z,100742.25
2017-07-18T05:53:53.342Z,100744.20
2017-07-18T05:56:20.841Z,100740.75
2017-07-18T05:58:48.371Z,100746.34
2017-07-18T06:01:15.823Z,100732.93
2017-07-18T06:03:43.295Z,100742.69
2017-07-18T06:06:10.778Z,100746.98
2017-07-18T06:08:38.242Z,100746.38
2017-07-18T06:11:05.762Z,100745.91
2017-07-18T06:13:33.218Z,100746.19
2017-07-18T06:16:00.653Z,100746.62
2017-07-18T06:18:28.142Z,100736.39
2017-07-18T06:20:55.591Z,100736.20
2017-07-18T06:23:23.137Z,100731.49
2017-07-18T06:25:50.574Z,100730.47
2017-07-18T06:28:18.037Z,100729.79
2017-07-18T06:30:45.506Z,100727.12
2017-07-18T06:33:13.064Z,100729.63
2017-07-18T06:35:40.515Z,100718.28
2017-07-18T06:38:08.100Z,100719.45
2017-07-18T06:40:35.653Z,100716.80
2017-07-18T06:43:03.506Z,100718.59
2017-07-18T06:45:30.942Z,100714.53
2017-07-18T06:47:58.741Z,100714.63
2017-07-18T06:50:26.204Z,100715.82
2017-07-18T06:52:53.705Z,100708.77
2017-07-18T06:55:21.239Z,100712.23
2017-07-18T06:57:48.758Z,100713.09
2017-07-18T07:00:16.473Z,100712.66
2017-07-18T07:02:44.007Z,100697.91
2017-07-18T07:05:11.539Z,100697.30
2017-07-18T07:07:38.969Z,100699.68
2017-07-18T07:10:06.423Z,100702.06
2017-07-18T07:12:33.874Z,100698.98
2017-07-18T07:15:01.384Z,100701.85
2017-07-18T07:17:29.107Z,100695.10
2017-07-18T07:19:56.647Z,100690.03
2017-07-18T07:22:24.183Z,100688.20
2017-07-18T07:24:51.661Z,100681.81
2017-07-18T07:27:19.128Z,100681.64
2017-07-18T07:29:47.039Z,100680.78
2017-07-18T07:32:14.577Z,100673.11
2017-07-18T07:34:42.068Z,100673.69
2017-07-18T07:37:09.533Z,100675.45
2017-07-18T07:39:37.374Z,100670.86
2017-07-18T07:42:04.985Z,100668.50
2017-07-18T07:44:32.442Z,100669.16
2017-07-18T07:46:59.944Z,100659.66
2017-07-18T07:49:27.424Z,100671.98
2017-07-18T07:51:54.867Z,100664.98
2017-07-18T07:54:22.565Z,100657.49
2017-07-18T07:56:50.129Z,100661.64
2017-07-18T07:59:17.637Z,100657.09
2017-07-18T08:01:45.155Z,100657.03
2017-07-18T08:04:12.706Z,100659.58
2017-07-18T08:06:40.501Z,100657.37
2017-07-18T08:09:07.967Z,100649.67
2017-07-18T08:11:35.411Z,100660.05
2017-07-18T08:14:03.019Z,100654.26
2017-07-18T08:16:30.461Z,100647.91
2017-07-18T08:18:57.937Z,100641.34
2017-07-18T08:21:25.412Z,100636.30
2017-07-18T08:23:52.917Z,100638.50
2017-07-18T08:26:20.373Z,100639.97
2017-07-18T08:28:47.880Z,100636.14
2017-07-18T08:31:15.383Z,100632.23
2017-07-18T08:33:42.845Z,100626.86
2017-07-18T08:36:10.310Z,100629.20
2017-07-18T08:38:37.750Z,100624.05
2017-07-18T08:41:05.223Z,100623.57
2017-07-18T08:43:32.755Z,100620.91
2017-07-18T08:46:00.214Z,100624.80
2017-07-18T08:48:27.670Z,100623.21
2017-07-18T08:50:55.250Z,100628.02
2017-07-18T08:53:22.701Z,100619.34
2017-07-18T08:55:50.161Z,100618.77
2017-07-18T08:58:17.593Z,100618.48
2017-07-18T09:00:45.076Z,100621.71
2017-07-18T09:03:12.526Z,100618.94
2017-07-18T09:05:40.084Z,100620.07
2017-07-18T09:08:07.630Z,100628.82
2017-07-18T09:10:35.196Z,100618.12
2017-07-18T09:13:02.647Z,100620.00
2017-07-18T09:15:30.219Z,100614.84
2017-07-18T09:17:57.758Z,100613.53
2017-07-18T09:20:25.233Z,100606.86
2017-07-18T09:22:52.784Z,100609.45
2017-07-18T09:25:20.226Z,100609.45
2017-07-18T09:27:47.802Z,100605.27
2017-07-18T09:30:15.260Z,100605.27
2017-07-18T09:32:42.821Z,100607.88
2017-07-18T09:35:10.369Z,100599.91
2017-07-18T09:37:37.938Z,100598.98
2017-07-18T09:40:05.506Z,100602.34
2017-07-18T09:42:32.966Z,100603.20
2017-07-18T09:45:00.497Z,100605.62
2017-07-18T09:47:27.954Z,100594.22
2017-07-18T09:49:55.385Z,100598.36
2017-07-18T09:52:22.852Z,100598.16
2017-07-18T09:54:50.289Z,100601.11
2017-07-18T09:57:17.786Z,100587.08
2017-07-18T09:59:45.225Z,100590.59
2017-07-18T10:02:12.711Z,100589.56
2017-07-18T10:04:40.174Z,100590.56
2017-07-18T10:07:07.710Z,100581.04
2017-07-18T10:09:35.282Z,100581.23
2017-07-18T10:12:02.727Z,100577.98
2017-07-18T10:14:30.300Z,100567.76
2017-07-18T10:16:57.843Z,100570.61
2017-07-18T10:19:25.666Z,100568.84
2017-07-18T10:21:53.234Z,100565.08
2017-07-18T10:24:20.707Z,100566.31
2017-07-18T10:26:48.146Z,100573.95
2017-07-18T10:29:15.645Z,100558.58
2017-07-18T10:31:43.336Z,100557.09
2017-07-18T10:34:10.873Z,100560.23
2017-07-18T10:36:38.313Z,100558.23
2017-07-18T10:39:05.785Z,100554.09
2017-07-18T10:41:33.243Z,100544.99
2017-07-18T10:44:00.947Z,100552.13
2017-07-18T10:46:28.549Z,100549.39
2017-07-18T10:48:55.982Z,100542.64
2017-07-18T10:51:23.525Z,100543.13
2017-07-18T10:53:51.033Z,100547.94
2017-07-18T10:56:18.583Z,100534.31
2017-07-18T10:58:46.033Z,100526.66
2017-07-18T11:01:14.409Z,100523.83
2017-07-18T11:03:41.860Z,100522.80
2017-07-18T11:06:09.289Z,100520.00
2017-07-18T11:08:36.763Z,100517.27
2017-07-18T11:11:04.305Z,100508.02
2017-07-18T11:13:31.760Z,100512.11
2017-07-18T11:15:59.205Z,100503.22
2017-07-18T11:18:26.718Z,100514.09
2017-07-18T11:20:54.154Z,100505.63
2017-07-18T11:23:21.636Z,100502.19
2017-07-18T11:25:49.191Z,100493.22
2017-07-18T11:28:16.653Z,100495.78
2017-07-18T11:30:44.104Z,100494.37
2017-07-18T11:33:11.576Z,100489.22
2017-07-18T11:35:39.113Z,100491.52
2017-07-18T11:38:06.542Z,100489.80
2017-07-18T11:40:34.000Z,100494.77
2017-07-18T11:43:01.471Z,100482.97
2017-07-18T11:45:29.032Z,100482.17
2017-07-18T11:47:56.490Z,100478.47
2017-07-18T11:50:23.945Z,100485.63
2017-07-18T11:52:51.409Z,100479.64
2017-07-18T11:55:19.034Z,100471.05
2017-07-18T11:57:46.510Z,100478.20
2017-07-18T12:00:13.977Z,100464.31
2017-07-18T12:02:41.450Z,100465.95
2017-07-18T12:05:08.915Z,100463.75
2017-07-18T12:07:36.790Z,100453.16
2017-07-18T12:10:04.333Z,100447.67
2017-07-18T12:12:31.790Z,100445.92
2017-07-18T12:14:59.350Z,100445.47
2017-07-18T12:17:26.923Z,100449.33
2017-07-18T12:19:54.481Z,100440.73
2017-07-18T12:22:21.937Z,100442.05
2017-07-18T12:24:49.379Z,100437.91
2017-07-18T12:27:16.841Z,100435.67
2017-07-18T12:29:44.286Z,100438.31
2017-07-18T12:32:11.779Z,100430.30
2017-07-18T12:34:39.226Z,100432.20
2017-07-18T12:37:06.706Z,100426.63
2017-07-18T12:39:34.217Z,100434.77
2017-07-18T12:42:01.673Z,100422.25
2017-07-18T12:44:29.129Z,100421.36
2017-07-18T12:46:56.614Z,100413.45
2017-07-18T12:49:24.142Z,100407.91
2017-07-18T12:51:51.692Z,100407.77
2017-07-18T12:54:19.221Z,100397.80
2017-07-18T12:56:46.710Z,100403.41
2017-07-18T12:59:14.183Z,100406.85
2017-07-18T13:01:41.733Z,100394.06
2017-07-18T13:04:09.278Z,100398.32
2017-07-18T13:06:37.028Z,100391.77
2017-07-18T13:09:04.508Z,100387.54
2017-07-18T13:11:31.955Z,100383.34
2017-07-18T13:13:59.417Z,100377.68
2017-07-18T13:16:26.886Z,100376.14
2017-07-18T13:18:54.353Z,100375.86
2017-07-18T13:21:21.907Z,100369.40
2017-07-18T13:23:49.448Z,100375.31
2017-07-18T13:26:16.907Z,100364.84
2017-07-18T13:28:44.498Z,100364.34
2017-07-18T13:31:12.014Z,100354.31
2017-07-18T13:33:39.462Z,100355.23
2017-07-18T13:36:07.043Z,100355.19
2017-07-18T13:38:34.608Z,100352.59
2017-07-18T13:41:02.074Z,100350.66
2017-07-18T13:43:29.523Z,100341.78
2017-07-18T13:45:57.066Z,100343.27
2017-07-18T13:48:24.617Z,100338.48
2017-07-18T13:50:52.177Z,100339.54
2017-07-18T13:53:20.993Z,100334.44
2017-07-18T13:55:48.465Z,100335.17
2017-07-18T13:58:15.976Z,100326.58
2017-07-18T14:00:43.433Z,100319.38
2017-07-18T14:03:10.961Z,100311.16
2017-07-18T14:05:38.599Z,100316.31
2017-07-18T14:08:06.062Z,100314.42
2017-07-18T14:10:33.522Z,100307.69
2017-07-18T14:13:01.035Z,100308.20
2017-07-18T14:15:28.470Z,100310.14
2017-07-18T14:17:55.921Z,100305.50
2017-07-18T14:20:23.396Z,100304.28
2017-07-18T14:22:50.865Z,100315.48
2017-07-18T14:25:18.306Z,100296.51
2017-07-18T14:27:45.785Z,100301.27
2017-07-18T14:30:13.240Z,100299.25
2017-07-18T14:32:40.688Z,100300.64
2017-07-18T14:35:08.155Z,100293.88
2017-07-18T14:37:35.713Z,100290.84
2017-07-18T14:40:03.183Z,100284.37
2017-07-18T14:42:30.619Z,100267.59
2017-07-18T14:44:58.166Z,100277.95
2017-07-18T14:47:25.635Z,100271.94
2017-07-18T14:49:53.200Z,100270.34
2017-07-18T14:52:20.668Z,100260.82
2017-07-18T14:54:48.121Z,100259.38
2017-07-18T14:57:15.664Z,100250.34
2017-07-18T14:59:43.132Z,100256.45
2017-07-18T15:02:10.579Z,100257.72
2017-07-18T15:04:38.136Z,100257.92
2017-07-18T15:07:05.574Z,100246.68
2017-07-18T15:09:33.026Z,100241.45
2017-07-18T15:12:00.505Z,100237.88
2017-07-18T15:14:28.073Z,100240.87
2017-07-18T15:16:55.513Z,100235.14
2017-07-18T15:19:23.003Z,100227.66
2017-07-18T15:21:50.504Z,100236.26
2017-07-18T15:24:17.950Z,100223.63
2017-07-18T15:26:45.415Z,100222.34
2017-07-18T15:29:12.851Z,100216.42
2017-07-18T15:31:40.361Z,100221.69
2017-07-18T15:34:07.901Z,100234.77
2017-07-18T15:36:35.481Z,100216.28
2017-07-18T15:39:02.926Z,100217.60
2017-07-18T15:41:30.494Z,100213.40
2017-07-18T15:43:57.934Z,100214.68
2017-07-18T15:46:25.406Z,100208.43
2017-07-18T15:48:52.883Z,100205.78
2017-07-18T15:51:20.417Z,100209.30
2017-07-18T15:53:47.874Z,100204.36
2017-07-18T15:56:15.422Z,100200.58
2017-07-18T15:58:42.882Z,100196.86
2017-07-18T16:01:10.458Z,100191.67
2017-07-18T16:03:38.003Z,100190.92
2017-07-18T16:06:05.562Z,100194.75
2017-07-18T16:08:33.079Z,100188.64
2017-07-18T16:11:00.548Z,100184.89
2017-07-18T16:13:28.061Z,100174.45
2017-07-18T16:15:56.135Z,100176.66
2017-07-18T16:18:23.657Z,100166.34
2017-07-18T16:20:51.089Z,100170.23
2017-07-18T16:23:18.579Z,100176.44
2017-07-18T16:25:46.012Z,100174.13
2017-07-18T16:28:13.703Z,100170.27
2017-07-18T16:30:41.259Z,100171.30
2017-07-18T16:33:08.716Z,100173.27
2017-07-18T16:35:36.177Z,100171.47
2017-07-18T16:38:03.645Z,100167.70
2017-07-18T16:40:31.081Z,100166.91
2017-07-18T16:42:58.634Z,100165.03
2017-07-18T16:45:26.114Z,100169.06
2017-07-18T16:47:53.575Z,100165.82
2017-07-18T16:50:21.168Z,100166.33
2017-07-18T16:52:48.641Z,100157.84
2017-07-18T16:55:16.094Z,100163.66
2017-07-18T16:57:43.556Z,100160.98
2017-07-18T17:00:11.064Z,100158.09
2017-07-18T17:02:38.598Z,100152.77
2017-07-18T17:05:06.070Z,100156.63
2017-07-18T17:07:33.610Z,100150.97
2017-07-18T17:10:01.161Z,100151.02
2017-07-18T17:12:28.594Z,100143.41
2017-07-18T17:14:56.552Z,100151.88
2017-07-18T17:17:24.027Z,100152.03
2017-07-18T17:19:51.482Z,100146.33
2017-07-18T17:22:18.929Z,100150.03
2017-07-18T17:24:46.389Z,100147.27
2017-07-18T17:27:13.904Z,100154.14
2017-07-18T17:29:41.441Z,100156.47
2017-07-18T17:32:08.921Z,100151.47
2017-07-18T17:34:36.382Z,100156.55
2017-07-18T17:37:03.902Z,100161.23
2017-07-18T17:39:31.382Z,100155.67
2017-07-18T17:41:58.832Z,100153.26
2017-07-18T17:44:26.286Z,100147.22
2017-07-18T17:46:53.836Z,100148.79
2017-07-18T17:49:21.311Z,100149.50
2017-07-18T17:51:48.850Z,100155.27
2017-07-18T17:54:16.408Z,100156.89
2017-07-18T17:56:43.858Z,100154.72
2017-07-18T17:59:11.356Z,100154.86
2017-07-18T18:01:38.869Z,100148.34
2017-07-18T18:04:06.342Z,100148.81
2017-07-18T18:06:33.805Z,100153.02
2017-07-18T18:09:01.262Z,100150.41
2017-07-18T18:11:28.719Z,100149.42
2017-07-18T18:13:56.276Z,100143.86
2017-07-18T18:16:23.756Z,100148.25
2017-07-18T18:18:51.293Z,100148.39
2017-07-18T18:21:18.860Z,100153.84
2017-07-18T18:23:46.386Z,100145.05
2017-07-18T18:26:14.322Z,100156.35
2017-07-18T18:28:41.881Z,100158.66
2017-07-18T18:31:09.397Z,100157.11
2017-07-18T18:33:36.838Z,100158.87
2017-07-18T18:36:04.396Z,100159.39
2017-07-18T18:38:31.930Z,100157.72
2017-07-18T18:40:59.421Z,100155.98
2017-07-18T18:43:26.903Z,100157.76
2017-07-18T18:45:54.421Z,100149.37
2017-07-18T18:48:21.883Z,100149.40
2017-07-18T18:50:49.449Z,100150.84
2017-07-18T18:53:16.998Z,100146.21
2017-07-18T18:55:44.465Z,100149.78
2017-07-18T18:58:11.933Z,100149.05
2017-07-18T19:00:39.374Z,100149.37
2017-07-18T19:03:06.918Z,100149.98
2017-07-18T19:05:34.388Z,100154.23
2017-07-18T19:08:01.875Z,100152.48
2017-07-18T19:10:29.386Z,100143.93
2017-07-18T19:12:56.851Z,100146.86
2017-07-18T19:15:24.331Z,100152.13
2017-07-18T19:17:51.778Z,100148.36
2017-07-18T19:20:19.238Z,100147.03
2017-07-18T19:22:46.683Z,100148.92
2017-07-18T19:25:14.149Z,100152.51
2017-07-18T19:27:41.602Z,100152.98
2017-07-18T19:30:09.108Z,100152.45
2017-07-18T19:32:36.606Z,100152.99
2017-07-18T19:35:04.079Z,100153.42
2017-07-18T19:37:31.624Z,100154.30
2017-07-18T19:39:59.672Z,100152.80
2017-07-18T19:42:27.210Z,100151.74
2017-07-18T19:44:54.665Z,100153.64
2017-07-18T19:47:22.158Z,100152.36
2017-07-18T19:49:49.607Z,100154.74
2017-07-18T19:52:17.344Z,100159.91
2017-07-18T19:54:44.851Z,100153.92
2017-07-18T19:57:12.373Z,100158.73
2017-07-18T19:59:39.859Z,100165.56
2017-07-18T20:02:07.322Z,100161.41
2017-07-18T20:04:35.246Z,100163.42
2017-07-18T20:07:02.740Z,100161.49
2017-07-18T20:09:30.191Z,100159.67
2017-07-18T20:11:57.664Z,100163.78
2017-07-18T20:14:25.108Z,100161.27
2017-07-18T20:16:52.871Z,100165.15
2017-07-18T20:19:20.435Z,100164.09
2017-07-18T20:21:47.903Z,100159.12
2017-07-18T20:24:15.355Z,100157.70
2017-07-18T20:26:42.874Z,100153.59
2017-07-18T20:29:10.313Z,100167.11
2017-07-18T20:31:37.826Z,100162.86
2017-07-18T20:34:05.287Z,100165.31
2017-07-18T20:36:32.835Z,100162.34
2017-07-18T20:39:00.322Z,100159.09
2017-07-18T20:41:28.254Z,100156.53
2017-07-18T20:43:55.809Z,100149.80
2017-07-18T20:46:23.263Z,100153.83
2017-07-18T20:48:50.778Z,100151.08
2017-07-18T20:51:18.297Z,100150.43
2017-07-18T20:53:45.800Z,100152.86
2017-07-18T20:56:13.253Z,100153.23
2017-07-18T20:58:40.748Z,100156.01
2017-07-18T21:01:08.195Z,100155.47
2017-07-18T21:03:35.766Z,100161.53
2017-07-18T21:06:03.795Z,100156.75
2017-07-18T21:08:31.263Z,100160.31
2017-07-18T21:10:58.751Z,100159.37
2017-07-18T21:13:26.205Z,100168.62
2017-07-18T21:15:53.642Z,100157.41
2017-07-18T21:18:22.242Z,100159.63
2017-07-18T21:20:49.677Z,100155.95
2017-07-18T21:23:17.115Z,100154.99
2017-07-18T21:25:44.573Z,100156.00
2017-07-18T21:28:12.133Z,100149.12
2017-07-18T21:30:39.599Z,100153.77
2017-07-18T21:33:07.063Z,100147.72
2017-07-18T21:35:34.548Z,100149.51
2017-07-18T21:38:01.981Z,100150.05
2017-07-18T21:40:29.441Z,100145.24
2017-07-18T21:42:57.190Z,100148.75
2017-07-18T21:45:24.641Z,100142.69
2017-07-18T21:47:52.086Z,100145.78
2017-07-18T21:50:19.545Z,100142.94
2017-07-18T21:52:47.106Z,100147.30
2017-07-18T21:55:16.235Z,100143.20
2017-07-18T21:57:43.690Z,100138.36
2017-07-18T22:00:11.161Z,100128.37
2017-07-18T22:02:38.614Z,100128.67
2017-07-18T22:05:06.050Z,100131.44
2017-07-18T22:07:33.511Z,100123.59
2017-07-18T22:10:00.992Z,100120.31
2017-07-18T22:12:28.542Z,100120.91
2017-07-18T22:14:55.982Z,100118.59
2017-07-18T22:17:23.457Z,100115.70
2017-07-18T22:19:50.915Z,100115.52
2017-07-18T22:22:18.386Z,100114.89
2017-07-18T22:24:45.842Z,100112.51
2017-07-18T22:27:13.390Z,100113.89
2017-07-18T22:29:40.931Z,100113.16
2017-07-18T22:32:08.485Z,100111.59
2017-07-18T22:34:35.956Z,100109.01
2017-07-18T22:37:03.512Z,100110.71
2017-07-18T22:39:30.960Z,100114.80
2017-07-18T22:41:58.536Z,100117.20
2017-07-18T22:44:25.970Z,100105.42
2017-07-18T22:46:53.541Z,100110.48
2017-07-18T22:49:20.984Z,100105.98
2017-07-18T22:51:48.447Z,100108.92
2017-07-18T22:54:16.502Z,100109.22
2017-07-18T22:56:43.978Z,100114.48
2017-07-18T22:59:11.437Z,100113.29
2017-07-18T23:01:38.894Z,100109.38
2017-07-18T23:04:06.365Z,100119.97
2017-07-18T23:06:34.220Z,100116.86
2017-07-18T23:09:01.732Z,100115.21
2017-07-18T23:11:29.243Z,100107.41
2017-07-18T23:13:56.724Z,100109.38
2017-07-18T23:16:24.256Z,100110.88
2017-07-18T23:18:51.797Z,100110.38
2017-07-18T23:21:19.270Z,100114.66
2017-07-18T23:23:46.734Z,100108.61
2017-07-18T23:26:14.174Z,100118.79
2017-07-18T23:28:41.741Z,100122.10
2017-07-18T23:31:09.300Z,100119.22
2017-07-18T23:33:36.752Z,100120.74
2017-07-18T23:36:04.212Z,100122.73
2017-07-18T23:38:31.681Z,100119.13
2017-07-18T23:40:59.151Z,100117.16
2017-07-18T23:43:26.688Z,100114.66
2017-07-18T23:45:54.243Z,100113.82
2017-07-18T23:48:21.706Z,100115.27
2017-07-18T23:50:49.259Z,100110.75
2017-07-18T23:53:16.715Z,100108.62
2017-07-18T23:55:44.214Z,100113.66
2017-07-18T23:58:11.713Z,100106.00
